createdAt,value
2019-02-17T00:02:26.726Z,17.77
2019-02-17T00:04:58.324Z,16.37
2019-02-17T00:07:29.460Z,17.60
2019-02-17T00:10:00.812Z,16.50
2019-02-17T00:12:32.760Z,16.33
2019-02-17T00:15:04.222Z,17.20
2019-02-17T00:17:35.388Z,16.50
2019-02-17T00:20:19.414Z,17.67
2019-02-17T00:22:50.520Z,16.50
2019-02-17T00:25:22.028Z,18.33
2019-02-17T00:27:53.120Z,16.57
2019-02-17T00:30:24.628Z,16.27
2019-02-17T00:32:55.807Z,16.53
2019-02-17T00:35:27.119Z,16.13
2019-02-17T00:37:58.278Z,16.20
2019-02-17T00:40:29.809Z,15.70
2019-02-17T00:43:01.074Z,16.73
2019-02-17T00:45:32.603Z,17.03
2019-02-17T00:48:03.737Z,16.83
2019-02-17T00:50:35.228Z,16.73
2019-02-17T00:53:06.361Z,16.00
2019-02-17T00:55:37.810Z,16.40
2019-02-17T00:58:08.891Z,18.40
2019-02-17T01:00:40.311Z,17.10
2019-02-17T01:03:11.490Z,17.00
2019-02-17T01:05:43.618Z,17.73
2019-02-17T01:08:14.784Z,17.90
2019-02-17T01:10:46.223Z,16.30
2019-02-17T01:13:17.335Z,16.30
2019-02-17T01:15:48.820Z,15.60
2019-02-17T01:18:19.897Z,16.30
2019-02-17T01:20:51.313Z,17.30
2019-02-17T01:23:22.465Z,16.30
2019-02-17T01:25:54.063Z,15.97
2019-02-17T01:28:25.193Z,16.20
2019-02-17T01:30:56.593Z,16.43
2019-02-17T01:33:27.699Z,15.53
2019-02-17T01:35:58.981Z,16.70
2019-02-17T01:38:30.077Z,15.50
2019-02-17T01:41:01.595Z,15.57
2019-02-17T01:43:33.096Z,16.20
2019-02-17T01:46:04.494Z,15.83
2019-02-17T01:48:35.599Z,15.90
2019-02-17T01:51:07.599Z,15.90
2019-02-17T01:53:38.675Z,17.20
2019-02-17T01:56:09.911Z,16.60
2019-02-17T01:58:41.012Z,16.80
2019-02-17T02:01:12.386Z,16.93
2019-02-17T02:03:43.471Z,16.70
2019-02-17T02:06:14.869Z,17.03
2019-02-17T02:08:45.919Z,15.90
2019-02-17T02:11:17.257Z,15.90
2019-02-17T02:13:48.328Z,17.67
2019-02-17T02:16:19.531Z,17.07
2019-02-17T02:18:50.603Z,16.63
2019-02-17T02:21:21.837Z,15.70
2019-02-17T02:23:52.921Z,15.57
2019-02-17T02:26:24.080Z,16.30
2019-02-17T02:28:55.210Z,16.80
2019-02-17T02:31:26.622Z,15.57
2019-02-17T02:33:57.755Z,15.57
2019-02-17T02:36:29.107Z,16.67
2019-02-17T02:39:00.240Z,16.20
2019-02-17T02:41:34.802Z,14.73
2019-02-17T02:44:04.298Z,14.57
2019-02-17T02:46:35.557Z,15.13
2019-02-17T02:49:06.642Z,15.83
2019-02-17T02:51:37.975Z,15.10
2019-02-17T02:54:09.060Z,15.33
2019-02-17T02:56:40.428Z,15.20
2019-02-17T02:59:12.115Z,15.67
2019-02-17T03:01:43.428Z,15.93
2019-02-17T03:04:14.507Z,15.30
2019-02-17T03:06:55.448Z,16.47
2019-02-17T03:09:26.631Z,15.40
2019-02-17T03:11:57.939Z,15.60
2019-02-17T03:14:29.123Z,15.47
2019-02-17T03:17:00.898Z,14.97
2019-02-17T03:19:32.088Z,14.57
2019-02-17T03:22:03.363Z,14.10
2019-02-17T03:24:34.455Z,16.33
2019-02-17T03:27:05.847Z,15.97
2019-02-17T03:29:36.912Z,15.40
2019-02-17T03:32:08.056Z,15.90
2019-02-17T03:34:39.216Z,15.80
2019-02-17T03:37:10.597Z,16.67
2019-02-17T03:39:41.984Z,16.27
2019-02-17T03:42:13.535Z,15.63
2019-02-17T03:44:45.716Z,14.30
2019-02-17T03:47:17.066Z,15.60
2019-02-17T03:49:48.223Z,16.07
2019-02-17T03:52:19.648Z,14.23
2019-02-17T03:54:50.728Z,14.70
2019-02-17T03:57:22.253Z,16.30
2019-02-17T03:59:53.423Z,15.70
2019-02-17T04:02:24.734Z,14.60
2019-02-17T04:04:55.877Z,14.67
2019-02-17T04:07:27.432Z,15.17
2019-02-17T04:09:58.513Z,15.33
2019-02-17T04:12:29.969Z,15.63
2019-02-17T04:15:01.111Z,14.70
2019-02-17T04:17:32.521Z,14.47
2019-02-17T04:20:03.635Z,14.90
2019-02-17T04:22:35.063Z,15.47
2019-02-17T04:25:06.214Z,14.43
2019-02-17T04:27:37.607Z,15.43
2019-02-17T04:30:08.694Z,14.70
2019-02-17T04:32:39.997Z,14.30
2019-02-17T04:35:11.065Z,15.27
2019-02-17T04:37:42.393Z,14.60
2019-02-17T04:40:13.445Z,14.90
2019-02-17T04:42:44.787Z,15.23
2019-02-17T04:45:15.839Z,15.27
2019-02-17T04:47:47.179Z,15.90
2019-02-17T04:50:18.262Z,14.53
2019-02-17T04:52:49.669Z,14.60
2019-02-17T04:55:20.794Z,15.33
2019-02-17T04:57:53.308Z,14.90
2019-02-17T05:00:24.400Z,14.50
2019-02-17T05:02:55.798Z,15.37
2019-02-17T05:05:26.879Z,14.23
2019-02-17T05:07:58.362Z,15.23
2019-02-17T05:10:29.511Z,14.97
2019-02-17T05:13:00.883Z,15.00
2019-02-17T05:15:31.967Z,14.50
2019-02-17T05:18:03.374Z,15.37
2019-02-17T05:20:34.460Z,16.00
2019-02-17T05:23:05.872Z,15.70
2019-02-17T05:25:36.921Z,14.90
2019-02-17T05:28:08.157Z,15.73
2019-02-17T05:30:51.466Z,15.60
2019-02-17T05:33:12.179Z,14.83
2019-02-17T05:35:43.251Z,14.53
2019-02-17T05:38:14.579Z,14.80
2019-02-17T05:40:45.694Z,14.67
2019-02-17T05:43:17.069Z,14.63
2019-02-17T05:45:48.139Z,15.60
2019-02-17T05:48:19.463Z,15.20
2019-02-17T05:50:50.597Z,14.73
2019-02-17T05:53:21.836Z,14.10
2019-02-17T05:55:52.884Z,14.27
2019-02-17T05:58:24.063Z,15.03
2019-02-17T06:01:03.233Z,14.50
2019-02-17T06:03:28.176Z,14.93
2019-02-17T06:05:59.359Z,14.87
2019-02-17T06:08:30.772Z,17.40
2019-02-17T06:11:01.884Z,17.10
2019-02-17T06:13:33.262Z,17.23
2019-02-17T06:16:04.408Z,14.60
2019-02-17T06:18:35.793Z,14.30
2019-02-17T06:21:06.918Z,15.47
2019-02-17T06:23:38.126Z,15.07
2019-02-17T06:26:09.299Z,15.90
2019-02-17T06:28:40.633Z,15.60
2019-02-17T06:31:14.672Z,17.57
2019-02-17T06:33:45.294Z,16.10
2019-02-17T06:36:16.475Z,17.40
2019-02-17T06:38:47.890Z,16.02
2019-02-17T06:41:18.945Z,15.45
2019-02-17T06:43:50.393Z,15.30
2019-02-17T06:46:26.862Z,16.27
2019-02-17T06:48:58.082Z,15.85
2019-02-17T06:51:29.276Z,17.02
2019-02-17T06:54:00.651Z,15.05
2019-02-17T06:56:53.564Z,17.60
2019-02-17T06:59:25.341Z,16.93
2019-02-17T07:01:56.570Z,16.97
2019-02-17T07:04:49.964Z,16.60
2019-02-17T07:07:21.112Z,16.05
2019-02-17T07:09:52.276Z,17.27
2019-02-17T07:12:23.390Z,16.82
2019-02-17T07:14:54.709Z,18.67
2019-02-17T07:17:25.790Z,17.40
2019-02-17T07:19:57.193Z,16.00
2019-02-17T07:22:28.306Z,17.20
2019-02-17T07:24:59.472Z,16.03
2019-02-17T07:27:30.566Z,15.58
2019-02-17T07:30:01.823Z,15.30
2019-02-17T07:32:33.256Z,15.60
2019-02-17T07:35:04.621Z,15.10
2019-02-17T07:37:35.757Z,15.23
2019-02-17T07:40:07.368Z,14.07
2019-02-17T07:42:38.485Z,13.88
2019-02-17T07:45:09.882Z,13.97
2019-02-17T07:47:41.055Z,13.47
2019-02-17T07:50:12.372Z,14.00
2019-02-17T07:52:43.500Z,13.97
2019-02-17T07:55:14.869Z,13.63
2019-02-17T07:57:45.993Z,15.20
2019-02-17T08:00:18.282Z,14.60
2019-02-17T08:02:49.673Z,13.80
2019-02-17T08:05:21.507Z,13.63
2019-02-17T08:07:52.608Z,14.90
2019-02-17T08:10:23.864Z,14.83
2019-02-17T08:12:54.923Z,13.67
2019-02-17T08:15:26.326Z,14.80
2019-02-17T08:17:57.447Z,15.67
2019-02-17T08:20:28.988Z,19.20
2019-02-17T08:23:00.096Z,14.83
2019-02-17T08:25:31.468Z,14.40
2019-02-17T08:28:02.657Z,14.50
2019-02-17T08:30:34.063Z,14.70
2019-02-17T08:33:24.188Z,14.60
2019-02-17T08:35:55.385Z,14.30
2019-02-17T08:38:26.525Z,14.67
2019-02-17T08:40:57.828Z,14.10
2019-02-17T08:43:28.995Z,15.07
2019-02-17T08:46:00.393Z,14.23
2019-02-17T08:48:31.594Z,14.50
2019-02-17T08:51:02.983Z,15.20
2019-02-17T08:53:34.175Z,15.23
2019-02-17T08:56:05.554Z,15.73
2019-02-17T08:58:36.700Z,15.07
2019-02-17T09:01:07.981Z,15.53
2019-02-17T09:03:39.067Z,14.27
2019-02-17T09:06:10.442Z,14.23
2019-02-17T09:08:41.555Z,14.70
2019-02-17T09:11:13.068Z,14.40
2019-02-17T09:13:44.243Z,13.37
2019-02-17T09:16:15.474Z,13.57
2019-02-17T09:18:46.644Z,13.17
2019-02-17T09:21:17.954Z,13.00
2019-02-17T09:23:50.002Z,12.17
2019-02-17T09:26:21.304Z,12.20
2019-02-17T09:28:52.404Z,12.90
2019-02-17T09:31:35.611Z,10.47
2019-02-17T09:34:06.702Z,11.40
2019-02-17T09:36:37.923Z,11.40
2019-02-17T09:39:10.079Z,11.67
2019-02-17T09:41:41.339Z,10.70
2019-02-17T09:44:12.440Z,11.10
2019-02-17T09:46:43.584Z,10.70
2019-02-17T09:49:14.686Z,10.60
2019-02-17T09:51:45.970Z,10.10
2019-02-17T09:54:18.174Z,10.90
2019-02-17T09:56:49.574Z,10.67
2019-02-17T09:59:22.940Z,10.43
2019-02-17T10:01:54.002Z,9.50
2019-02-17T10:04:25.332Z,10.30
2019-02-17T10:06:56.422Z,9.23
2019-02-17T10:09:27.925Z,9.93
2019-02-17T10:11:59.039Z,10.43
2019-02-17T10:14:30.742Z,10.40
2019-02-17T10:17:01.869Z,10.27
2019-02-17T10:19:33.118Z,9.63
2019-02-17T10:22:04.234Z,9.80
2019-02-17T10:24:35.637Z,9.83
2019-02-17T10:27:06.755Z,9.90
2019-02-17T10:29:38.320Z,9.90
2019-02-17T10:32:09.373Z,10.33
2019-02-17T10:34:40.820Z,10.00
2019-02-17T10:37:11.917Z,9.27
2019-02-17T10:39:43.310Z,8.90
2019-02-17T10:42:15.456Z,8.67
2019-02-17T10:44:46.744Z,9.03
2019-02-17T10:47:17.827Z,8.97
2019-02-17T10:50:00.580Z,9.47
2019-02-17T10:52:31.780Z,8.63
2019-02-17T10:55:03.030Z,9.10
2019-02-17T10:57:34.111Z,9.20
2019-02-17T11:00:08.756Z,8.40
2019-02-17T11:02:46.730Z,9.40
2019-02-17T11:05:13.396Z,9.67
2019-02-17T11:07:44.458Z,9.00
2019-02-17T11:10:15.982Z,9.87
2019-02-17T11:12:47.080Z,9.50
2019-02-17T11:15:19.102Z,9.20
2019-02-17T11:17:50.244Z,9.13
2019-02-17T11:20:21.494Z,9.43
2019-02-17T11:22:52.689Z,9.70
2019-02-17T11:25:23.987Z,9.07
2019-02-17T11:28:14.136Z,9.70
2019-02-17T11:30:45.332Z,8.37
2019-02-17T11:33:16.443Z,9.83
2019-02-17T11:35:47.817Z,9.23
2019-02-17T11:38:18.938Z,8.97
2019-02-17T11:40:50.221Z,9.10
2019-02-17T11:43:21.332Z,9.37
2019-02-17T11:45:52.763Z,8.87
2019-02-17T11:48:23.855Z,8.37
2019-02-17T11:50:55.192Z,7.63
2019-02-17T11:53:26.340Z,8.20
2019-02-17T11:56:09.260Z,9.03
2019-02-17T11:58:40.320Z,8.87
2019-02-17T12:01:11.675Z,9.00
2019-02-17T12:03:42.739Z,7.87
2019-02-17T12:06:14.149Z,8.13
2019-02-17T12:08:48.968Z,8.47
2019-02-17T12:11:20.328Z,8.67
2019-02-17T12:13:51.480Z,8.50
2019-02-17T12:16:22.818Z,8.43
2019-02-17T12:18:53.974Z,9.20
2019-02-17T12:21:59.522Z,8.47
2019-02-17T12:24:47.382Z,8.47
2019-02-17T12:27:26.399Z,9.03
2019-02-17T12:30:02.500Z,8.90
2019-02-17T12:32:33.974Z,8.27
2019-02-17T12:35:05.488Z,8.53
2019-02-17T12:37:36.812Z,8.57
2019-02-17T12:40:11.057Z,8.60
2019-02-17T12:42:42.468Z,9.00
2019-02-17T12:45:18.072Z,8.60
2019-02-17T12:47:57.444Z,7.90
2019-02-17T12:50:20.956Z,8.97
2019-02-17T12:52:52.265Z,8.30
2019-02-17T12:55:23.410Z,9.23
2019-02-17T12:57:54.852Z,8.53
2019-02-17T13:00:25.983Z,9.27
2019-02-17T13:02:57.355Z,9.47
2019-02-17T13:05:28.424Z,8.80
2019-02-17T13:07:59.750Z,8.77
2019-02-17T13:10:30.806Z,8.30
2019-02-17T13:13:02.062Z,9.30
2019-02-17T13:15:33.166Z,8.57
2019-02-17T13:18:04.411Z,8.63
2019-02-17T13:20:54.604Z,8.70
2019-02-17T13:23:25.878Z,8.50
2019-02-17T13:25:59.378Z,8.67
2019-02-17T13:28:42.376Z,8.57
2019-02-17T13:31:13.516Z,7.60
2019-02-17T13:33:46.473Z,8.80
2019-02-17T13:36:17.638Z,9.17
2019-02-17T13:38:49.012Z,7.97
2019-02-17T13:41:20.130Z,9.00
2019-02-17T13:43:51.421Z,8.37
2019-02-17T13:46:22.518Z,8.90
2019-02-17T13:48:53.669Z,8.87
2019-02-17T13:51:24.776Z,8.60
2019-02-17T13:53:55.960Z,8.53
2019-02-17T13:56:27.184Z,8.10
2019-02-17T13:58:58.488Z,8.40
2019-02-17T14:01:29.756Z,8.30
2019-02-17T14:04:00.952Z,7.83
2019-02-17T14:06:32.134Z,7.63
2019-02-17T14:09:04.715Z,7.13
2019-02-17T14:11:37.468Z,7.73
2019-02-17T14:14:08.668Z,7.40
2019-02-17T14:16:39.743Z,7.80
2019-02-17T14:19:10.915Z,8.00
2019-02-17T14:21:42.094Z,7.03
2019-02-17T14:24:13.254Z,7.30
2019-02-17T14:26:45.296Z,7.10
2019-02-17T14:29:16.748Z,7.33
2019-02-17T14:31:47.994Z,7.40
2019-02-17T14:34:19.332Z,6.67
2019-02-17T14:36:50.508Z,7.20
2019-02-17T14:39:21.834Z,7.60
2019-02-17T14:41:52.916Z,6.73
2019-02-17T14:44:24.177Z,6.50
2019-02-17T14:47:02.320Z,6.87
2019-02-17T14:49:33.934Z,6.43
2019-02-17T14:52:05.220Z,6.70
2019-02-17T14:54:36.672Z,6.97
2019-02-17T14:57:07.920Z,6.53
2019-02-17T14:59:39.317Z,6.73
2019-02-17T15:02:10.538Z,6.33
2019-02-17T15:04:41.789Z,7.43
2019-02-17T15:07:12.844Z,7.20
2019-02-17T15:09:44.338Z,7.07
2019-02-17T15:12:15.421Z,6.47
2019-02-17T15:14:46.768Z,7.47
2019-02-17T15:17:17.804Z,6.60
2019-02-17T15:19:49.178Z,7.33
2019-02-17T15:22:20.293Z,7.27
2019-02-17T15:24:51.636Z,7.33
2019-02-17T15:27:22.684Z,7.40
2019-02-17T15:29:53.951Z,7.27
2019-02-17T15:32:26.390Z,7.47
2019-02-17T15:34:57.650Z,7.50
2019-02-17T15:37:28.807Z,7.47
2019-02-17T15:40:00.037Z,6.93
2019-02-17T15:42:31.144Z,6.97
2019-02-17T15:45:02.963Z,7.40
2019-02-17T15:47:34.258Z,7.10
2019-02-17T15:50:06.172Z,7.17
2019-02-17T15:52:38.301Z,6.80
2019-02-17T15:55:09.836Z,7.47
2019-02-17T15:57:41.040Z,7.77
2019-02-17T16:00:13.744Z,7.77
2019-02-17T16:02:44.873Z,8.30
2019-02-17T16:05:16.044Z,7.53
2019-02-17T16:07:47.066Z,7.40
2019-02-17T16:10:18.576Z,7.30
2019-02-17T16:12:49.808Z,8.30
2019-02-17T16:15:21.023Z,7.23
2019-02-17T16:17:52.159Z,7.10
2019-02-17T16:20:23.427Z,6.53
2019-02-17T16:22:54.570Z,7.30
2019-02-17T16:25:25.722Z,7.20
2019-02-17T16:27:56.838Z,7.00
2019-02-17T16:30:28.160Z,7.30
2019-02-17T16:32:59.274Z,7.47
2019-02-17T16:35:30.612Z,6.50
2019-02-17T16:38:01.733Z,7.33
2019-02-17T16:40:33.044Z,6.87
2019-02-17T16:43:04.173Z,6.70
2019-02-17T16:45:35.539Z,7.07
2019-02-17T16:48:06.646Z,6.50
2019-02-17T16:50:37.815Z,6.90
2019-02-17T16:53:08.924Z,7.17
2019-02-17T16:55:40.232Z,6.53
2019-02-17T16:58:11.367Z,7.20
2019-02-17T17:00:42.852Z,7.40
2019-02-17T17:03:14.029Z,7.37
2019-02-17T17:05:45.426Z,7.60
2019-02-17T17:08:16.828Z,7.60
2019-02-17T17:10:48.227Z,7.50
2019-02-17T17:13:19.396Z,7.57
2019-02-17T17:15:50.823Z,7.00
2019-02-17T17:18:21.905Z,7.93
2019-02-17T17:20:53.309Z,8.30
2019-02-17T17:23:24.426Z,7.60
2019-02-17T17:25:55.827Z,7.70
2019-02-17T17:28:27.307Z,7.03
2019-02-17T17:30:58.777Z,7.80
2019-02-17T17:33:30.096Z,8.00
2019-02-17T17:36:01.347Z,8.17
2019-02-17T17:38:32.598Z,8.53
2019-02-17T17:41:04.225Z,8.43
2019-02-17T17:43:35.435Z,7.97
2019-02-17T17:46:06.709Z,8.27
2019-02-17T17:48:38.016Z,8.20
2019-02-17T17:51:09.296Z,8.77
2019-02-17T17:53:41.468Z,8.07
2019-02-17T17:56:12.628Z,9.07
2019-02-17T17:58:43.798Z,9.27
2019-02-17T18:01:15.049Z,9.00
2019-02-17T18:03:46.224Z,9.10
2019-02-17T18:06:17.497Z,9.80
2019-02-17T18:08:48.586Z,10.03
2019-02-17T18:11:19.774Z,10.10
2019-02-17T18:13:50.816Z,10.40
2019-02-17T18:16:22.089Z,9.70
2019-02-17T18:18:53.210Z,9.80
2019-02-17T18:21:24.472Z,10.20
2019-02-17T18:23:55.616Z,10.97
2019-02-17T18:26:27.078Z,11.03
2019-02-17T18:28:58.167Z,10.70
2019-02-17T18:31:29.448Z,11.30
2019-02-17T18:34:00.548Z,11.53
2019-02-17T18:36:32.075Z,11.77
2019-02-17T18:39:03.794Z,12.20
2019-02-17T18:41:35.470Z,11.80
2019-02-17T18:44:06.965Z,10.90
2019-02-17T18:46:38.271Z,11.80
2019-02-17T18:49:09.424Z,12.70
2019-02-17T18:51:41.793Z,13.23
2019-02-17T18:54:13.086Z,12.67
2019-02-17T18:56:44.498Z,11.33
2019-02-17T18:59:15.619Z,11.37
2019-02-17T19:01:47.120Z,10.03
2019-02-17T19:04:18.361Z,10.60
2019-02-17T19:06:49.664Z,10.30
2019-02-17T19:09:20.731Z,10.70
2019-02-17T19:11:52.187Z,10.57
2019-02-17T19:14:23.309Z,10.70
2019-02-17T19:16:54.599Z,13.40
2019-02-17T19:19:25.687Z,15.30
2019-02-17T19:21:59.891Z,13.80
2019-02-17T19:24:31.212Z,12.40
2019-02-17T19:27:02.671Z,12.80
2019-02-17T19:29:33.888Z,12.97
2019-02-17T19:32:05.554Z,13.40
2019-02-17T19:34:36.638Z,12.10
2019-02-17T19:37:08.158Z,13.33
2019-02-17T19:39:39.251Z,13.33
2019-02-17T19:42:10.730Z,14.33
2019-02-17T19:44:41.994Z,14.07
2019-02-17T19:47:13.243Z,13.30
2019-02-17T19:49:44.362Z,13.90
2019-02-17T19:52:15.714Z,13.87
2019-02-17T19:54:47.016Z,14.07
2019-02-17T19:57:18.511Z,14.47
2019-02-17T19:59:49.614Z,13.27
2019-02-17T20:02:27.572Z,13.00
2019-02-17T20:05:19.132Z,11.30
2019-02-17T20:07:52.829Z,11.60
2019-02-17T20:10:23.832Z,11.30
2019-02-17T20:12:55.053Z,12.90
2019-02-17T20:15:29.336Z,16.30
2019-02-17T20:18:00.896Z,12.73
2019-02-17T20:20:32.226Z,13.37
2019-02-17T20:23:03.548Z,12.80
2019-02-17T20:25:34.776Z,13.07
2019-02-17T20:28:06.262Z,12.27
2019-02-17T20:30:37.468Z,11.50
2019-02-17T20:33:08.850Z,11.30
2019-02-17T20:35:40.023Z,11.53
2019-02-17T20:38:11.240Z,11.40
2019-02-17T20:40:42.664Z,10.40
2019-02-17T20:43:14.158Z,11.30
2019-02-17T20:45:45.259Z,15.47
2019-02-17T20:48:16.722Z,14.27
2019-02-17T20:50:47.873Z,14.37
2019-02-17T20:53:19.150Z,14.17
2019-02-17T20:55:50.538Z,13.03
2019-02-17T20:58:22.478Z,12.60
2019-02-17T21:01:15.716Z,11.13
2019-02-17T21:03:59.436Z,10.33
2019-02-17T21:06:32.656Z,10.83
2019-02-17T21:09:05.243Z,10.97
2019-02-17T21:11:38.325Z,11.30
2019-02-17T21:14:10.260Z,10.80
2019-02-17T21:16:42.124Z,10.77
2019-02-17T21:19:16.456Z,11.13
2019-02-17T21:21:56.122Z,11.17
2019-02-17T21:24:28.407Z,11.47
2019-02-17T21:27:01.208Z,11.17
2019-02-17T21:29:32.677Z,9.73
2019-02-17T21:32:03.853Z,10.80
2019-02-17T21:34:35.358Z,11.20
2019-02-17T21:37:06.555Z,11.40
2019-02-17T21:39:37.824Z,11.40
2019-02-17T21:42:09.053Z,11.90
2019-02-17T21:44:40.635Z,10.27
2019-02-17T21:47:11.788Z,11.57
2019-02-17T21:49:43.105Z,11.13
2019-02-17T21:52:14.205Z,11.17
2019-02-17T21:54:46.258Z,11.20
2019-02-17T21:57:17.470Z,11.37
2019-02-17T21:59:48.822Z,12.10
2019-02-17T22:02:20.026Z,10.43
2019-02-17T22:04:51.334Z,11.10
2019-02-17T22:07:22.538Z,11.53
2019-02-17T22:09:53.906Z,11.47
2019-02-17T22:12:25.108Z,11.30
2019-02-17T22:14:56.508Z,12.43
2019-02-17T22:17:27.616Z,11.27
2019-02-17T22:19:59.084Z,12.30
2019-02-17T22:22:30.187Z,10.97
2019-02-17T22:25:02.815Z,10.50
2019-02-17T22:27:35.152Z,11.60
2019-02-17T22:30:07.848Z,11.37
2019-02-17T22:32:39.060Z,11.30
2019-02-17T22:35:10.655Z,10.43
2019-02-17T22:37:41.764Z,10.73
2019-02-17T22:40:13.174Z,12.03
2019-02-17T22:42:44.444Z,11.70
2019-02-17T22:45:15.974Z,12.50
2019-02-17T22:47:47.118Z,10.80
2019-02-17T22:50:18.457Z,11.50
2019-02-17T22:52:49.637Z,12.00
2019-02-17T22:55:21.054Z,11.67
2019-02-17T22:57:52.164Z,10.73
2019-02-17T23:01:02.050Z,11.60
2019-02-17T23:03:34.758Z,12.53
2019-02-17T23:06:06.197Z,11.60
2019-02-17T23:08:37.394Z,12.47
2019-02-17T23:11:08.778Z,11.90
2019-02-17T23:13:39.940Z,11.87
2019-02-17T23:16:11.680Z,10.80
2019-02-17T23:18:44.566Z,11.30
2019-02-17T23:21:16.117Z,11.37
2019-02-17T23:23:47.152Z,11.07
2019-02-17T23:26:18.613Z,11.47
2019-02-17T23:28:49.788Z,13.07
2019-02-17T23:31:21.116Z,11.27
2019-02-17T23:33:52.200Z,11.70
2019-02-17T23:36:24.520Z,11.33
2019-02-17T23:38:55.574Z,11.27
2019-02-17T23:41:26.910Z,12.07
2019-02-17T23:43:57.984Z,10.00
2019-02-17T23:46:29.304Z,11.33
2019-02-17T23:49:00.372Z,10.23
2019-02-17T23:51:43.122Z,10.47
2019-02-17T23:54:14.204Z,11.67
2019-02-17T23:56:45.426Z,10.53
2019-02-17T23:59:16.550Z,11.60
